METAR AND TAF INFORMATION
METAR FOR UWKD
ADDS - METARS form results

(1242 UTC 23 January 2019)
Data provider http://aviationweather.gov/metar/data/
 
METAR text: UWKD 231230Z 18004MPS CAVOK M21/M24 Q1021 R11/420350 NOSIG RMK QFE756/1008
Conditions at: UWKD (KAZAN , RU) observed 1230 UTC 23 January 2019
Temperature: -21.0°C (-6°F)
Dewpoint: -24.0°C (-11°F) [RH = 77%]
Pressure (altimeter): 30.15 inches Hg (1021.0 mb)
Winds: from the S (180 degrees) at 9 MPH (8 knots; 4.1 m/s)
Visibility: 6 or more miles (10+ km)
Ceiling: ceiling and visibility are OK
Clouds: unknown
Weather: no significant weather observed at this time

METAR text: UWKD 231200Z 17004MPS 9999 SCT009 M20/M23 Q1021 R11/420350 NOSIG RMK QFE756/1008
Conditions at: UWKD (KAZAN , RU) observed 1200 UTC 23 January 2019
Temperature: -20.0°C (-4°F)
Dewpoint: -23.0°C (-9°F) [RH = 77%]
Pressure (altimeter): 30.15 inches Hg (1021.0 mb)
Winds: from the S (170 degrees) at 9 MPH (8 knots; 4.1 m/s)
Visibility: 6 or more miles (10+ km)
Ceiling: at least 12,000 feet AGL
Clouds: scattered clouds at 900 feet AGL
Weather: no significant weather observed at this time

Forecast for: UWKD (KAZAN , RU)
Text: TAF UWKD 231055Z 2312/2412 18003MPS 5000 BR BKN015 TXM14/2312Z TNM24/2404Z
Forecast period: 1200 UTC 23 January 2019 to 0600 UTC 24 January 2019
Forecast type: FROM: standard forecast or significant change
Winds: from the S (180 degrees) at 7 MPH (6 knots; 3.1 m/s)
Visibility: 3 miles (5 km)
Ceiling: 1500 feet AGL
Clouds: broken clouds at 1500 feet AGL
Weather: BR  (mist)
Text: TEMPO 2312/2324 2000 SN BR SCT006 BKN011
Forecast period: 1200 UTC 23 January 2019 to 0000 UTC 24 January 2019
Forecast type: TEMPORARY: The following changes expected for less than half the time period
Visibility: 1.24 miles (2.00 km)
Ceiling: 1100 feet AGL
Clouds: scattered clouds at 600 feet AGL
broken clouds at 1100 feet AGL
Weather: SN BR  (moderate snow, mist)
Text: BECMG 2406/2408 16005G10MPS
Forecast period: 0600 to 1200 UTC 24 January 2019
Forecast type: BECOMING: Conditions expected to become as follows by 0800 UTC 24 January 2019
Winds: from the SSE (160 degrees) at 12 MPH (10 knots; 5.1 m/s)
gusting to 22 MPH (19 knots; 9.8 m/s)
Visibility: 3 miles (5 km)
Ceiling: 1500 feet AGL
Clouds: broken clouds at 1500 feet AGL
Weather: BR  (mist)

 AIRPORT MAP

 RUNWAY INFORMATION

 AIRPORT FREQUENCIES
Type ATIS Name ATIS Frequency 126.8 MHZ
Type GND Name TAXIING Frequency 121.7 MHZ
Type RDR Name RADAR Frequency 119.4 MHZ
Type TWR Name TWR Frequency 120.3 MHZ

 AIRPORT NEAR NAVIGATION AIDS
Type NDB Name Kazan Frequency 475 KHZ
Type NDB Name Kazan Frequency 475 KHZ
Type NDB Name Kazan Frequency 292 KHZ
Type VOR-DME Name Kazan Frequency 112700 KHZ
Type NDB Name Kazan Frequency 292 KHZ



2018 Air Astana Virtual Airline